sensor_id;sensor_type;location;lat;lon;timestamp;temperature;humidity
56162;DHT22;42045;52.986;6.014;2022-10-31T00:00:45;11.20;99.90
56162;DHT22;42045;52.986;6.014;2022-10-31T00:03:11;11.20;99.90
56162;DHT22;42045;52.986;6.014;2022-10-31T00:05:41;11.20;99.90
56162;DHT22;42045;52.986;6.014;2022-10-31T00:08:06;11.10;99.90
56162;DHT22;42045;52.986;6.014;2022-10-31T00:10:32;11.20;99.90
56162;DHT22;42045;52.986;6.014;2022-10-31T00:12:58;11.20;99.90
56162;DHT22;42045;52.986;6.014;2022-10-31T00:15:23;11.20;99.90
56162;DHT22;42045;52.986;6.014;2022-10-31T00:17:49;11.20;99.90
56162;DHT22;42045;52.986;6.014;2022-10-31T00:20:15;11.00;99.90
56162;DHT22;42045;52.986;6.014;2022-10-31T00:22:40;11.00;99.90
56162;DHT22;42045;52.986;6.014;2022-10-31T00:25:06;11.00;99.90
56162;DHT22;42045;52.986;6.014;2022-10-31T00:27:32;11.10;99.90
56162;DHT22;42045;52.986;6.014;2022-10-31T00:29:57;11.10;99.90
56162;DHT22;42045;52.986;6.014;2022-10-31T00:32:23;11.00;99.90
56162;DHT22;42045;52.986;6.014;2022-10-31T00:34:49;10.90;99.90
56162;DHT22;42045;52.986;6.014;2022-10-31T00:37:14;10.90;99.90
56162;DHT22;42045;52.986;6.014;2022-10-31T00:39:40;11.00;99.90
56162;DHT22;42045;52.986;6.014;2022-10-31T00:42:05;10.90;99.90
56162;DHT22;42045;52.986;6.014;2022-10-31T00:44:31;11.00;99.90
56162;DHT22;42045;52.986;6.014;2022-10-31T00:46:57;10.80;99.90
56162;DHT22;42045;52.986;6.014;2022-10-31T00:49:22;10.80;99.90
56162;DHT22;42045;52.986;6.014;2022-10-31T00:51:48;10.90;99.90
56162;DHT22;42045;52.986;6.014;2022-10-31T00:54:13;10.80;99.90
56162;DHT22;42045;52.986;6.014;2022-10-31T00:56:39;10.80;99.90
56162;DHT22;42045;52.986;6.014;2022-10-31T00:59:05;10.80;99.90
56162;DHT22;42045;52.986;6.014;2022-10-31T01:01:30;10.80;99.90
56162;DHT22;42045;52.986;6.014;2022-10-31T01:03:56;10.90;99.90
56162;DHT22;42045;52.986;6.014;2022-10-31T01:06:21;10.90;99.90
56162;DHT22;42045;52.986;6.014;2022-10-31T01:08:47;11.00;99.90
56162;DHT22;42045;52.986;6.014;2022-10-31T01:11:22;10.90;99.90
56162;DHT22;42045;52.986;6.014;2022-10-31T01:13:50;10.90;99.90
56162;DHT22;42045;52.986;6.014;2022-10-31T01:16:19;11.00;99.90
56162;DHT22;42045;52.986;6.014;2022-10-31T01:18:45;11.00;99.90
56162;DHT22;42045;52.986;6.014;2022-10-31T01:21:23;11.10;99.90
56162;DHT22;42045;52.986;6.014;2022-10-31T01:23:50;11.00;99.90
56162;DHT22;42045;52.986;6.014;2022-10-31T01:26:18;11.10;99.90
56162;DHT22;42045;52.986;6.014;2022-10-31T01:28:56;11.10;99.90
56162;DHT22;42045;52.986;6.014;2022-10-31T01:31:24;11.00;99.90
56162;DHT22;42045;52.986;6.014;2022-10-31T01:33:51;11.10;99.90
56162;DHT22;42045;52.986;6.014;2022-10-31T01:36:37;11.00;99.90
56162;DHT22;42045;52.986;6.014;2022-10-31T01:39:08;11.10;99.90
56162;DHT22;42045;52.986;6.014;2022-10-31T01:41:36;11.00;99.90
56162;DHT22;42045;52.986;6.014;2022-10-31T01:46:57;11.00;99.90
56162;DHT22;42045;52.986;6.014;2022-10-31T01:49:37;11.00;99.90
56162;DHT22;42045;52.986;6.014;2022-10-31T01:54:37;10.90;99.90
56162;DHT22;42045;52.986;6.014;2022-10-31T01:57:06;10.90;99.90
56162;DHT22;42045;52.986;6.014;2022-10-31T01:59:35;10.90;99.90
56162;DHT22;42045;52.986;6.014;2022-10-31T02:02:04;10.90;99.90
56162;DHT22;42045;52.986;6.014;2022-10-31T02:04:29;10.90;99.90
56162;DHT22;42045;52.986;6.014;2022-10-31T02:06:59;10.80;99.90
56162;DHT22;42045;52.986;6.014;2022-10-31T02:09:27;10.80;99.90
56162;DHT22;42045;52.986;6.014;2022-10-31T02:11:56;10.80;99.90
56162;DHT22;42045;52.986;6.014;2022-10-31T02:14:24;10.80;99.90
56162;DHT22;42045;52.986;6.014;2022-10-31T02:16:50;10.80;99.90
56162;DHT22;42045;52.986;6.014;2022-10-31T02:19:25;10.80;99.90
56162;DHT22;42045;52.986;6.014;2022-10-31T02:22:04;10.70;99.90
56162;DHT22;42045;52.986;6.014;2022-10-31T02:24:47;10.80;99.90
56162;DHT22;42045;52.986;6.014;2022-10-31T02:27:43;10.70;99.90
56162;DHT22;42045;52.986;6.014;2022-10-31T02:30:19;10.70;99.90
56162;DHT22;42045;52.986;6.014;2022-10-31T02:39:13;10.60;99.90
56162;DHT22;42045;52.986;6.014;2022-10-31T02:41:47;10.60;99.90
56162;DHT22;42045;52.986;6.014;2022-10-31T02:47:15;10.50;99.90
56162;DHT22;42045;52.986;6.014;2022-10-31T02:49:59;10.40;99.90
56162;DHT22;42045;52.986;6.014;2022-10-31T02:52:30;10.50;99.90
56162;DHT22;42045;52.986;6.014;2022-10-31T02:54:56;10.40;99.90
56162;DHT22;42045;52.986;6.014;2022-10-31T02:57:29;10.40;99.90
56162;DHT22;42045;52.986;6.014;2022-10-31T03:00:03;10.30;99.90
56162;DHT22;42045;52.986;6.014;2022-10-31T03:02:52;10.30;99.90
56162;DHT22;42045;52.986;6.014;2022-10-31T03:21:34;10.10;99.90
56162;DHT22;42045;52.986;6.014;2022-10-31T03:24:02;10.20;99.90
56162;DHT22;42045;52.986;6.014;2022-10-31T03:26:30;10.10;99.90
56162;DHT22;42045;52.986;6.014;2022-10-31T03:29:02;10.10;99.90
56162;DHT22;42045;52.986;6.014;2022-10-31T03:31:41;10.20;99.90
56162;DHT22;42045;52.986;6.014;2022-10-31T03:34:09;10.10;99.90
56162;DHT22;42045;52.986;6.014;2022-10-31T03:36:39;10.10;99.90
56162;DHT22;42045;52.986;6.014;2022-10-31T03:39:06;10.00;99.90
56162;DHT22;42045;52.986;6.014;2022-10-31T03:41:37;10.00;99.90
56162;DHT22;42045;52.986;6.014;2022-10-31T03:44:08;10.00;99.90
56162;DHT22;42045;52.986;6.014;2022-10-31T03:46:35;10.00;99.90
56162;DHT22;42045;52.986;6.014;2022-10-31T03:49:01;9.90;99.90
56162;DHT22;42045;52.986;6.014;2022-10-31T03:51:43;10.00;99.90
56162;DHT22;42045;52.986;6.014;2022-10-31T03:54:25;9.90;99.90
56162;DHT22;42045;52.986;6.014;2022-10-31T03:56:58;9.90;99.90
56162;DHT22;42045;52.986;6.014;2022-10-31T03:59:51;9.90;99.90
56162;DHT22;42045;52.986;6.014;2022-10-31T04:02:22;9.90;99.90
56162;DHT22;42045;52.986;6.014;2022-10-31T04:04:50;9.90;99.90
56162;DHT22;42045;52.986;6.014;2022-10-31T04:07:17;9.80;99.90
56162;DHT22;42045;52.986;6.014;2022-10-31T04:09:45;9.90;99.90
56162;DHT22;42045;52.986;6.014;2022-10-31T04:12:14;9.90;99.90
56162;DHT22;42045;52.986;6.014;2022-10-31T04:14:42;9.80;99.90
56162;DHT22;42045;52.986;6.014;2022-10-31T04:17:13;9.80;99.90
56162;DHT22;42045;52.986;6.014;2022-10-31T04:19:40;9.70;99.90
56162;DHT22;42045;52.986;6.014;2022-10-31T04:22:06;9.80;99.90
56162;DHT22;42045;52.986;6.014;2022-10-31T04:24:32;9.70;99.90
56162;DHT22;42045;52.986;6.014;2022-10-31T04:26:57;9.70;99.90
56162;DHT22;42045;52.986;6.014;2022-10-31T04:29:23;9.60;99.90
56162;DHT22;42045;52.986;6.014;2022-10-31T04:31:49;9.70;99.90
56162;DHT22;42045;52.986;6.014;2022-10-31T04:34:14;9.70;99.90
56162;DHT22;42045;52.986;6.014;2022-10-31T04:36:40;9.60;99.90
56162;DHT22;42045;52.986;6.014;2022-10-31T04:39:05;9.70;99.90
56162;DHT22;42045;52.986;6.014;2022-10-31T04:41:31;9.60;99.90
56162;DHT22;42045;52.986;6.014;2022-10-31T04:43:57;9.50;99.90
56162;DHT22;42045;52.986;6.014;2022-10-31T04:46:22;9.60;99.90
56162;DHT22;42045;52.986;6.014;2022-10-31T04:48:48;9.50;99.90
56162;DHT22;42045;52.986;6.014;2022-10-31T04:51:14;9.50;99.90
56162;DHT22;42045;52.986;6.014;2022-10-31T04:53:39;9.60;99.90
56162;DHT22;42045;52.986;6.014;2022-10-31T04:56:05;9.60;99.90
56162;DHT22;42045;52.986;6.014;2022-10-31T04:58:31;9.50;99.90
56162;DHT22;42045;52.986;6.014;2022-10-31T05:00:56;9.50;99.90
56162;DHT22;42045;52.986;6.014;2022-10-31T05:03:22;9.50;99.90
56162;DHT22;42045;52.986;6.014;2022-10-31T05:05:48;9.40;99.90
56162;DHT22;42045;52.986;6.014;2022-10-31T05:08:14;9.50;99.90
56162;DHT22;42045;52.986;6.014;2022-10-31T05:10:40;9.40;99.90
56162;DHT22;42045;52.986;6.014;2022-10-31T05:13:06;9.40;99.90
56162;DHT22;42045;52.986;6.014;2022-10-31T05:15:31;9.40;99.90
56162;DHT22;42045;52.986;6.014;2022-10-31T05:17:57;9.50;99.90
56162;DHT22;42045;52.986;6.014;2022-10-31T05:20:25;9.50;99.90
56162;DHT22;42045;52.986;6.014;2022-10-31T05:22:53;9.40;99.90
56162;DHT22;42045;52.986;6.014;2022-10-31T05:25:20;9.40;99.90
56162;DHT22;42045;52.986;6.014;2022-10-31T05:27:48;9.50;99.90
56162;DHT22;42045;52.986;6.014;2022-10-31T05:30:16;9.50;99.90
56162;DHT22;42045;52.986;6.014;2022-10-31T05:32:44;9.40;99.90
56162;DHT22;42045;52.986;6.014;2022-10-31T05:35:14;9.50;99.90
56162;DHT22;42045;52.986;6.014;2022-10-31T05:37:40;9.50;99.90
56162;DHT22;42045;52.986;6.014;2022-10-31T05:40:08;9.40;99.90
56162;DHT22;42045;52.986;6.014;2022-10-31T05:42:35;9.50;99.90
56162;DHT22;42045;52.986;6.014;2022-10-31T05:45:01;9.40;99.90
56162;DHT22;42045;52.986;6.014;2022-10-31T05:47:27;9.50;99.90
56162;DHT22;42045;52.986;6.014;2022-10-31T05:49:52;9.40;99.90
56162;DHT22;42045;52.986;6.014;2022-10-31T05:52:18;9.40;99.90
56162;DHT22;42045;52.986;6.014;2022-10-31T05:54:44;9.50;99.90
56162;DHT22;42045;52.986;6.014;2022-10-31T05:57:10;9.40;99.90
56162;DHT22;42045;52.986;6.014;2022-10-31T05:59:35;9.50;99.90
56162;DHT22;42045;52.986;6.014;2022-10-31T06:02:01;9.50;99.90
56162;DHT22;42045;52.986;6.014;2022-10-31T06:04:27;9.40;99.90
56162;DHT22;42045;52.986;6.014;2022-10-31T06:06:52;9.40;99.90
56162;DHT22;42045;52.986;6.014;2022-10-31T06:09:18;9.50;99.90
56162;DHT22;42045;52.986;6.014;2022-10-31T06:11:43;9.40;99.90
56162;DHT22;42045;52.986;6.014;2022-10-31T06:14:09;9.30;99.90
56162;DHT22;42045;52.986;6.014;2022-10-31T06:16:35;9.40;99.90
56162;DHT22;42045;52.986;6.014;2022-10-31T06:19:00;9.30;99.90
56162;DHT22;42045;52.986;6.014;2022-10-31T06:21:26;9.30;99.90
56162;DHT22;42045;52.986;6.014;2022-10-31T06:23:52;9.30;99.90
56162;DHT22;42045;52.986;6.014;2022-10-31T06:26:17;9.30;99.90
56162;DHT22;42045;52.986;6.014;2022-10-31T06:28:43;9.50;99.90
56162;DHT22;42045;52.986;6.014;2022-10-31T06:31:09;9.40;99.90
56162;DHT22;42045;52.986;6.014;2022-10-31T06:33:34;9.40;99.90
56162;DHT22;42045;52.986;6.014;2022-10-31T06:36:01;9.40;99.90
56162;DHT22;42045;52.986;6.014;2022-10-31T06:38:27;9.40;99.90
56162;DHT22;42045;52.986;6.014;2022-10-31T06:40:53;9.50;99.90
56162;DHT22;42045;52.986;6.014;2022-10-31T06:43:20;9.40;99.90
56162;DHT22;42045;52.986;6.014;2022-10-31T06:45:47;9.40;99.90
56162;DHT22;42045;52.986;6.014;2022-10-31T06:48:12;9.50;99.90
56162;DHT22;42045;52.986;6.014;2022-10-31T06:50:38;9.40;99.90
56162;DHT22;42045;52.986;6.014;2022-10-31T06:53:04;9.40;99.90
56162;DHT22;42045;52.986;6.014;2022-10-31T06:55:30;9.50;99.90
56162;DHT22;42045;52.986;6.014;2022-10-31T06:57:59;9.50;99.90
56162;DHT22;42045;52.986;6.014;2022-10-31T07:00:26;9.50;99.90
56162;DHT22;42045;52.986;6.014;2022-10-31T07:03:01;9.70;99.90
56162;DHT22;42045;52.986;6.014;2022-10-31T07:05:28;9.70;99.90
56162;DHT22;42045;52.986;6.014;2022-10-31T07:07:59;9.60;99.90
56162;DHT22;42045;52.986;6.014;2022-10-31T07:10:26;9.70;99.90
56162;DHT22;42045;52.986;6.014;2022-10-31T07:12:56;9.70;99.90
56162;DHT22;42045;52.986;6.014;2022-10-31T07:15:26;9.80;99.90
56162;DHT22;42045;52.986;6.014;2022-10-31T07:17:52;9.70;99.90
56162;DHT22;42045;52.986;6.014;2022-10-31T07:20:18;9.80;99.90
56162;DHT22;42045;52.986;6.014;2022-10-31T07:22:44;9.90;99.90
56162;DHT22;42045;52.986;6.014;2022-10-31T07:25:10;9.90;99.90
56162;DHT22;42045;52.986;6.014;2022-10-31T07:27:40;9.90;99.90
56162;DHT22;42045;52.986;6.014;2022-10-31T07:30:08;9.90;99.90
56162;DHT22;42045;52.986;6.014;2022-10-31T07:35:14;10.00;99.90
56162;DHT22;42045;52.986;6.014;2022-10-31T07:37:40;10.10;99.90
56162;DHT22;42045;52.986;6.014;2022-10-31T07:40:07;10.10;99.90
56162;DHT22;42045;52.986;6.014;2022-10-31T07:42:38;10.10;99.90
56162;DHT22;42045;52.986;6.014;2022-10-31T07:45:05;10.20;99.90
56162;DHT22;42045;52.986;6.014;2022-10-31T07:47:41;10.30;99.90
56162;DHT22;42045;52.986;6.014;2022-10-31T07:50:09;10.30;99.90
56162;DHT22;42045;52.986;6.014;2022-10-31T07:52:35;10.40;99.90
56162;DHT22;42045;52.986;6.014;2022-10-31T07:55:01;10.40;99.90
56162;DHT22;42045;52.986;6.014;2022-10-31T07:57:28;10.50;99.90
56162;DHT22;42045;52.986;6.014;2022-10-31T07:59:53;10.60;99.90
56162;DHT22;42045;52.986;6.014;2022-10-31T08:02:19;10.60;99.90
56162;DHT22;42045;52.986;6.014;2022-10-31T08:04:45;10.60;99.90
56162;DHT22;42045;52.986;6.014;2022-10-31T08:07:10;10.60;99.90
56162;DHT22;42045;52.986;6.014;2022-10-31T08:09:36;10.80;99.90
56162;DHT22;42045;52.986;6.014;2022-10-31T08:12:02;10.80;99.90
56162;DHT22;42045;52.986;6.014;2022-10-31T08:14:28;10.80;99.90
56162;DHT22;42045;52.986;6.014;2022-10-31T08:16:54;10.90;99.90
56162;DHT22;42045;52.986;6.014;2022-10-31T08:19:19;10.90;99.90
56162;DHT22;42045;52.986;6.014;2022-10-31T08:21:45;10.80;99.90
56162;DHT22;42045;52.986;6.014;2022-10-31T08:24:11;11.00;99.90
56162;DHT22;42045;52.986;6.014;2022-10-31T08:26:37;10.90;99.90
56162;DHT22;42045;52.986;6.014;2022-10-31T08:29:03;10.90;99.90
56162;DHT22;42045;52.986;6.014;2022-10-31T08:31:29;10.90;99.90
56162;DHT22;42045;52.986;6.014;2022-10-31T08:33:54;11.00;99.90
56162;DHT22;42045;52.986;6.014;2022-10-31T08:36:21;11.00;99.90
56162;DHT22;42045;52.986;6.014;2022-10-31T08:38:47;11.10;99.90
56162;DHT22;42045;52.986;6.014;2022-10-31T08:41:13;11.00;99.90
56162;DHT22;42045;52.986;6.014;2022-10-31T08:43:39;11.00;99.90
56162;DHT22;42045;52.986;6.014;2022-10-31T08:46:05;11.10;99.90
56162;DHT22;42045;52.986;6.014;2022-10-31T08:48:31;11.20;99.90
56162;DHT22;42045;52.986;6.014;2022-10-31T08:50:58;11.30;99.90
56162;DHT22;42045;52.986;6.014;2022-10-31T08:53:25;11.20;99.90
56162;DHT22;42045;52.986;6.014;2022-10-31T08:55:53;11.30;99.90
56162;DHT22;42045;52.986;6.014;2022-10-31T08:58:19;11.30;99.90
56162;DHT22;42045;52.986;6.014;2022-10-31T09:00:47;11.40;99.90
56162;DHT22;42045;52.986;6.014;2022-10-31T09:03:24;11.50;99.90
56162;DHT22;42045;52.986;6.014;2022-10-31T09:05:54;11.60;99.90
56162;DHT22;42045;52.986;6.014;2022-10-31T09:08:19;11.60;99.90
56162;DHT22;42045;52.986;6.014;2022-10-31T09:10:45;11.60;99.90
56162;DHT22;42045;52.986;6.014;2022-10-31T09:13:13;11.60;99.90
56162;DHT22;42045;52.986;6.014;2022-10-31T09:15:41;11.70;99.90
56162;DHT22;42045;52.986;6.014;2022-10-31T09:18:08;11.70;99.90
56162;DHT22;42045;52.986;6.014;2022-10-31T09:20:35;11.70;99.90
56162;DHT22;42045;52.986;6.014;2022-10-31T09:23:04;11.80;99.90
56162;DHT22;42045;52.986;6.014;2022-10-31T09:25:30;11.90;99.90
56162;DHT22;42045;52.986;6.014;2022-10-31T09:27:58;11.80;99.90
56162;DHT22;42045;52.986;6.014;2022-10-31T09:30:24;11.90;99.90
56162;DHT22;42045;52.986;6.014;2022-10-31T09:33:01;11.90;99.90
56162;DHT22;42045;52.986;6.014;2022-10-31T09:35:27;12.00;99.90
56162;DHT22;42045;52.986;6.014;2022-10-31T09:37:57;12.00;99.90
56162;DHT22;42045;52.986;6.014;2022-10-31T09:40:34;12.00;99.90
56162;DHT22;42045;52.986;6.014;2022-10-31T09:48:40;12.30;99.90
56162;DHT22;42045;52.986;6.014;2022-10-31T09:51:16;12.40;99.90
56162;DHT22;42045;52.986;6.014;2022-10-31T09:53:49;12.50;99.90
56162;DHT22;42045;52.986;6.014;2022-10-31T09:56:19;12.50;99.90
56162;DHT22;42045;52.986;6.014;2022-10-31T09:58:56;12.70;99.90
56162;DHT22;42045;52.986;6.014;2022-10-31T10:04:29;13.10;99.90
56162;DHT22;42045;52.986;6.014;2022-10-31T10:06:56;13.20;99.90
56162;DHT22;42045;52.986;6.014;2022-10-31T10:09:25;13.40;99.90
56162;DHT22;42045;52.986;6.014;2022-10-31T10:12:09;13.30;99.90
56162;DHT22;42045;52.986;6.014;2022-10-31T10:14:50;13.40;99.90
56162;DHT22;42045;52.986;6.014;2022-10-31T10:17:39;13.50;99.90
56162;DHT22;42045;52.986;6.014;2022-10-31T10:20:27;13.40;99.90
56162;DHT22;42045;52.986;6.014;2022-10-31T10:25:39;13.40;99.90
56162;DHT22;42045;52.986;6.014;2022-10-31T10:28:23;13.40;99.90
56162;DHT22;42045;52.986;6.014;2022-10-31T10:31:01;13.40;99.90
56162;DHT22;42045;52.986;6.014;2022-10-31T10:33:39;13.40;99.90
56162;DHT22;42045;52.986;6.014;2022-10-31T10:36:17;13.50;99.90
56162;DHT22;42045;52.986;6.014;2022-10-31T10:38:54;13.50;99.90
56162;DHT22;42045;52.986;6.014;2022-10-31T10:41:23;13.60;99.90
56162;DHT22;42045;52.986;6.014;2022-10-31T10:43:50;13.60;99.90
56162;DHT22;42045;52.986;6.014;2022-10-31T10:46:47;13.70;99.90
56162;DHT22;42045;52.986;6.014;2022-10-31T10:49:35;13.70;99.90
56162;DHT22;42045;52.986;6.014;2022-10-31T10:58:00;13.80;99.90
56162;DHT22;42045;52.986;6.014;2022-10-31T11:00:31;13.70;99.90
56162;DHT22;42045;52.986;6.014;2022-10-31T11:02:58;13.70;99.90
56162;DHT22;42045;52.986;6.014;2022-10-31T11:08:01;13.60;99.90
56162;DHT22;42045;52.986;6.014;2022-10-31T11:10:27;13.70;99.90
56162;DHT22;42045;52.986;6.014;2022-10-31T11:16:02;13.70;99.90
56162;DHT22;42045;52.986;6.014;2022-10-31T11:18:31;13.70;99.90
56162;DHT22;42045;52.986;6.014;2022-10-31T11:20:59;13.70;99.90
56162;DHT22;42045;52.986;6.014;2022-10-31T11:23:27;13.80;99.90
56162;DHT22;42045;52.986;6.014;2022-10-31T11:28:24;14.00;99.90
56162;DHT22;42045;52.986;6.014;2022-10-31T11:30:59;14.10;99.90
56162;DHT22;42045;52.986;6.014;2022-10-31T11:33:27;14.30;99.90
56162;DHT22;42045;52.986;6.014;2022-10-31T11:35:53;14.40;99.90
56162;DHT22;42045;52.986;6.014;2022-10-31T11:38:22;14.40;99.90
56162;DHT22;42045;52.986;6.014;2022-10-31T11:40:57;14.50;99.90
56162;DHT22;42045;52.986;6.014;2022-10-31T11:43:24;14.60;99.90
56162;DHT22;42045;52.986;6.014;2022-10-31T11:45:50;14.70;99.90
56162;DHT22;42045;52.986;6.014;2022-10-31T11:48:18;14.80;99.90
56162;DHT22;42045;52.986;6.014;2022-10-31T11:50:54;14.90;99.90
56162;DHT22;42045;52.986;6.014;2022-10-31T11:53:30;14.90;99.90
56162;DHT22;42045;52.986;6.014;2022-10-31T11:56:13;15.00;99.90
56162;DHT22;42045;52.986;6.014;2022-10-31T11:58:39;15.10;99.90
56162;DHT22;42045;52.986;6.014;2022-10-31T12:01:05;15.10;99.90
56162;DHT22;42045;52.986;6.014;2022-10-31T12:04:06;14.90;99.90
56162;DHT22;42045;52.986;6.014;2022-10-31T12:06:38;15.00;99.90
56162;DHT22;42045;52.986;6.014;2022-10-31T12:09:29;14.90;99.90
56162;DHT22;42045;52.986;6.014;2022-10-31T12:17:21;14.80;99.90
56162;DHT22;42045;52.986;6.014;2022-10-31T12:42:21;14.90;99.90
56162;DHT22;42045;52.986;6.014;2022-10-31T12:45:07;14.90;99.90
56162;DHT22;42045;52.986;6.014;2022-10-31T12:50:28;15.00;99.90
56162;DHT22;42045;52.986;6.014;2022-10-31T12:58:40;15.00;99.90
56162;DHT22;42045;52.986;6.014;2022-10-31T13:06:50;15.00;99.90
56162;DHT22;42045;52.986;6.014;2022-10-31T13:09:27;15.00;99.90
56162;DHT22;42045;52.986;6.014;2022-10-31T13:12:04;15.00;99.90
56162;DHT22;42045;52.986;6.014;2022-10-31T13:15:05;15.00;99.90
56162;DHT22;42045;52.986;6.014;2022-10-31T13:17:41;15.10;99.90
56162;DHT22;42045;52.986;6.014;2022-10-31T13:20:30;15.10;99.90
56162;DHT22;42045;52.986;6.014;2022-10-31T13:23:21;15.10;99.90
56162;DHT22;42045;52.986;6.014;2022-10-31T13:25:52;15.10;99.90
56162;DHT22;42045;52.986;6.014;2022-10-31T13:30:51;15.10;99.90
56162;DHT22;42045;52.986;6.014;2022-10-31T13:33:31;15.10;99.90
56162;DHT22;42045;52.986;6.014;2022-10-31T13:36:15;15.20;99.90
56162;DHT22;42045;52.986;6.014;2022-10-31T13:41:48;15.10;99.90
56162;DHT22;42045;52.986;6.014;2022-10-31T13:44:26;15.10;99.90
56162;DHT22;42045;52.986;6.014;2022-10-31T13:46:54;15.10;99.90
56162;DHT22;42045;52.986;6.014;2022-10-31T13:54:35;15.00;99.90
56162;DHT22;42045;52.986;6.014;2022-10-31T13:57:01;15.00;99.90
56162;DHT22;42045;52.986;6.014;2022-10-31T13:59:29;15.00;99.90
56162;DHT22;42045;52.986;6.014;2022-10-31T14:02:02;15.00;99.90
56162;DHT22;42045;52.986;6.014;2022-10-31T14:04:44;15.00;99.90
56162;DHT22;42045;52.986;6.014;2022-10-31T14:07:14;15.00;99.90
56162;DHT22;42045;52.986;6.014;2022-10-31T14:12:26;15.00;99.90
56162;DHT22;42045;52.986;6.014;2022-10-31T14:14:57;15.00;99.90
56162;DHT22;42045;52.986;6.014;2022-10-31T14:17:27;15.00;99.90
56162;DHT22;42045;52.986;6.014;2022-10-31T14:22:38;15.00;99.90
56162;DHT22;42045;52.986;6.014;2022-10-31T14:25:27;15.00;99.90
56162;DHT22;42045;52.986;6.014;2022-10-31T14:27:53;15.00;99.90
56162;DHT22;42045;52.986;6.014;2022-10-31T14:30:24;15.00;99.90
56162;DHT22;42045;52.986;6.014;2022-10-31T14:33:18;14.90;99.90
56162;DHT22;42045;52.986;6.014;2022-10-31T14:36:08;15.00;99.90
56162;DHT22;42045;52.986;6.014;2022-10-31T14:47:03;14.90;99.90
56162;DHT22;42045;52.986;6.014;2022-10-31T14:52:07;14.80;99.90
56162;DHT22;42045;52.986;6.014;2022-10-31T14:54:39;14.80;99.90
56162;DHT22;42045;52.986;6.014;2022-10-31T14:57:13;14.80;99.90
56162;DHT22;42045;52.986;6.014;2022-10-31T14:59:44;14.80;99.90
56162;DHT22;42045;52.986;6.014;2022-10-31T15:02:24;14.70;99.90
56162;DHT22;42045;52.986;6.014;2022-10-31T15:04:52;14.70;99.90
56162;DHT22;42045;52.986;6.014;2022-10-31T15:07:24;14.70;99.90
56162;DHT22;42045;52.986;6.014;2022-10-31T15:10:03;14.60;99.90
56162;DHT22;42045;52.986;6.014;2022-10-31T15:12:31;14.60;99.90
56162;DHT22;42045;52.986;6.014;2022-10-31T15:14:56;14.60;99.90
56162;DHT22;42045;52.986;6.014;2022-10-31T15:17:25;14.50;99.90
56162;DHT22;42045;52.986;6.014;2022-10-31T15:19:52;14.50;99.90
56162;DHT22;42045;52.986;6.014;2022-10-31T15:22:20;14.50;99.90
56162;DHT22;42045;52.986;6.014;2022-10-31T15:24:48;14.40;99.90
56162;DHT22;42045;52.986;6.014;2022-10-31T15:27:16;14.40;99.90
56162;DHT22;42045;52.986;6.014;2022-10-31T15:29:55;14.40;99.90
56162;DHT22;42045;52.986;6.014;2022-10-31T15:32:26;14.40;99.90
56162;DHT22;42045;52.986;6.014;2022-10-31T15:34:53;14.30;99.90
56162;DHT22;42045;52.986;6.014;2022-10-31T15:37:21;14.30;99.90
56162;DHT22;42045;52.986;6.014;2022-10-31T15:39:48;14.30;99.90
56162;DHT22;42045;52.986;6.014;2022-10-31T15:45:00;14.20;99.90
56162;DHT22;42045;52.986;6.014;2022-10-31T15:47:29;14.20;99.90
56162;DHT22;42045;52.986;6.014;2022-10-31T15:49:57;14.10;99.90
56162;DHT22;42045;52.986;6.014;2022-10-31T15:52:31;14.10;99.90
56162;DHT22;42045;52.986;6.014;2022-10-31T15:55:03;14.10;99.90
56162;DHT22;42045;52.986;6.014;2022-10-31T15:57:30;14.00;99.90
56162;DHT22;42045;52.986;6.014;2022-10-31T15:59:56;14.00;99.90
56162;DHT22;42045;52.986;6.014;2022-10-31T16:02:25;14.00;99.90
56162;DHT22;42045;52.986;6.014;2022-10-31T16:04:55;14.00;99.90
56162;DHT22;42045;52.986;6.014;2022-10-31T16:07:22;13.90;99.90
56162;DHT22;42045;52.986;6.014;2022-10-31T16:12:21;14.00;99.90
56162;DHT22;42045;52.986;6.014;2022-10-31T16:14:47;13.90;99.90
56162;DHT22;42045;52.986;6.014;2022-10-31T16:17:15;13.90;99.90
56162;DHT22;42045;52.986;6.014;2022-10-31T16:19:52;13.90;99.90
56162;DHT22;42045;52.986;6.014;2022-10-31T16:22:38;13.90;99.90
56162;DHT22;42045;52.986;6.014;2022-10-31T16:25:12;13.90;99.90
56162;DHT22;42045;52.986;6.014;2022-10-31T16:27:40;13.90;99.90
56162;DHT22;42045;52.986;6.014;2022-10-31T16:33:00;13.90;99.90
56162;DHT22;42045;52.986;6.014;2022-10-31T16:35:37;13.90;99.90
56162;DHT22;42045;52.986;6.014;2022-10-31T16:38:04;13.90;99.90
56162;DHT22;42045;52.986;6.014;2022-10-31T16:40:31;13.90;99.90
56162;DHT22;42045;52.986;6.014;2022-10-31T16:42:58;13.90;99.90
56162;DHT22;42045;52.986;6.014;2022-10-31T16:45:29;13.90;99.90
56162;DHT22;42045;52.986;6.014;2022-10-31T16:48:08;13.90;99.90
56162;DHT22;42045;52.986;6.014;2022-10-31T16:50:35;13.90;99.90
56162;DHT22;42045;52.986;6.014;2022-10-31T16:53:00;13.80;99.90
56162;DHT22;42045;52.986;6.014;2022-10-31T16:55:26;13.90;99.90
56162;DHT22;42045;52.986;6.014;2022-10-31T16:57:54;13.90;99.90
56162;DHT22;42045;52.986;6.014;2022-10-31T17:00:23;13.80;99.90
56162;DHT22;42045;52.986;6.014;2022-10-31T17:02:54;13.80;99.90
56162;DHT22;42045;52.986;6.014;2022-10-31T17:05:22;13.80;99.90
56162;DHT22;42045;52.986;6.014;2022-10-31T17:07:58;13.80;99.90
56162;DHT22;42045;52.986;6.014;2022-10-31T17:10:24;13.80;99.90
56162;DHT22;42045;52.986;6.014;2022-10-31T17:12:50;13.70;99.90
56162;DHT22;42045;52.986;6.014;2022-10-31T17:15:27;13.70;99.90
56162;DHT22;42045;52.986;6.014;2022-10-31T17:17:54;13.70;99.90
56162;DHT22;42045;52.986;6.014;2022-10-31T17:20:25;13.70;99.90
56162;DHT22;42045;52.986;6.014;2022-10-31T17:22:51;13.70;99.90
56162;DHT22;42045;52.986;6.014;2022-10-31T17:25:20;13.70;99.90
56162;DHT22;42045;52.986;6.014;2022-10-31T17:27:47;13.70;99.90
56162;DHT22;42045;52.986;6.014;2022-10-31T17:30:13;13.70;99.90
56162;DHT22;42045;52.986;6.014;2022-10-31T17:32:40;13.70;99.90
56162;DHT22;42045;52.986;6.014;2022-10-31T17:35:08;13.70;99.90
56162;DHT22;42045;52.986;6.014;2022-10-31T17:37:34;13.60;99.90
56162;DHT22;42045;52.986;6.014;2022-10-31T17:40:00;13.60;99.90
56162;DHT22;42045;52.986;6.014;2022-10-31T17:42:25;13.60;99.90
56162;DHT22;42045;52.986;6.014;2022-10-31T17:44:51;13.60;99.90
56162;DHT22;42045;52.986;6.014;2022-10-31T17:47:17;13.60;99.90
56162;DHT22;42045;52.986;6.014;2022-10-31T17:49:42;13.60;99.90
56162;DHT22;42045;52.986;6.014;2022-10-31T17:52:08;13.60;99.90
56162;DHT22;42045;52.986;6.014;2022-10-31T17:54:34;13.60;99.90
56162;DHT22;42045;52.986;6.014;2022-10-31T17:56:59;13.60;99.90
56162;DHT22;42045;52.986;6.014;2022-10-31T17:59:25;13.60;99.90
56162;DHT22;42045;52.986;6.014;2022-10-31T18:01:53;13.60;99.90
56162;DHT22;42045;52.986;6.014;2022-10-31T18:04:18;13.60;99.90
56162;DHT22;42045;52.986;6.014;2022-10-31T18:06:44;13.60;99.90